Terminal Aerodrome Forecast
Issued by NWS Glasgow, MT

Home | Current Version | Previous Version | Text Only | Print | Product List | Glossary On
Versions: 1 2 3 4 5 6 7 8 9 10 11 12
691
FTUS45 KGGW 011720
TAFGGW
TAF
KGGW 011720Z 0118/0218 12010KT P6SM SCT100
     FM020500 32011KT P6SM -SHRA BKN080
     FM020800 32009KT P6SM VCSH BKN080
     FM021200 32007KT P6SM SCT060=

USA.gov is the U.S. government's official web portal to all federal, state and local government web resources and services.